Ровно, Украина

01 09, 2014 16:35 EEST (GMT +0300)
Rivne | Change Station
CLOSE
Current Station
Аэропорт
Location: Rivne,
Высота над уровнем моря: 758 ft
Ближайшие Погодные Станции

В.н.у.м. 758 ft 50.58 °N, 26.13 °E | Updated 35 minutes ago

Scattered Clouds
Переменная Облачность
79 °F
Ощущается Как 79 °F
С
0
Ветер переменчевый Ветер от Северный

Сегодня
Высокий -- | Низкий -- °F
--% Вероятн. осадков
Вчера
Высокий -- | Низкий -- °F
Precip. -- дюймов
6:29 AM 8:00 PM
Растущая луна, 41% visible
Давление 29.95 дюймов
Видимость 6.2 милиь
Облачность Переменная Облачность 3000 ft
Точка Росы 50 °F
Влажность воздуха 36%
Дождь 0.00 дюймов
Глубина снега Нет в наличии.
УФ 3 из 12
Пыльца Нет в наличии.
Качество воздуха Нет в наличии.
Flu Activity Нет в наличии.
METAR UKLR 011300Z 00000MPS 9999 SCT030 26/10 Q1014 12090070 NOSIG

More Conditions Fewer Conditions

Давление 29.95 дюймов
Видимость 6.2 милиь
Облачность Переменная Облачность 3000 ft
Точка Росы 50 °F
Влажность воздуха 36%
Дождь 0.00 дюймов
Глубина снега Нет в наличии.
УФ 3 из 12
Пыльца Нет в наличии.
Качество воздуха Нет в наличии.
Flu Activity Нет в наличии.
METAR UKLR 011300Z 00000MPS 9999 SCT030 26/10 Q1014 12090070 NOSIG

More Conditions Fewer Conditions

10-Day Weather Forecast

Almanac

Астрономические явления

Sep. 01, 2014 Восход Закат
Настоящее время 6:29 AM EEST 8:00 PM EEST
Гражданские сумерки 5:54 AM EEST 8:34 PM EEST
Навигационные сумерки 5:13 AM EEST 9:16 PM EEST
Астрономические сумерки 4:27 AM EEST 10:02 PM EEST
Луна 1:37 PM EEST 11:04 PM EEST
Длительность светового времени 14h 39m
Продолжительность Дня
13h 31m
Tomorrow will be 3m 42s shorter.
Растущая луна, 41% of the Moon is Illuminated
Сегодня
Растущая луна
Сент 2
Первая четверть
Сент 8
Полнолуние
Сент 15
Четвертая четверть
Сент 24
Новая

Вчерашние Экстремумы

Country Highs Country Lows

Community

WunderPhotos

Upload Photos

1,749,217 фотографии загружены!

Nearby

Качество воздуха

Not available.

Глубина Снега

Not available.

Сейсмическая активность

Город Distance Mag. Time & Date
No recent earthquake activity has been reported nearby.
Minimum magnitude displayed is 2.5.

Температура Прибрежных Вод

Место Температура
Нет зарегистрированных станций

Ближайшие Погодные Станции